Time;durP1;ratioP1;P1;durP2;ratioP2;P2;SDS_P1;SDS_P2;PMS_P1;PMS_P2;Temp;Humidity;BMP_temperature;BMP_pressure;BME280_temperature;BME280_humidity;BME280_pressure;Samples;Min_cycle;Max_cycle;Signal;HPM_P1;HPM_P2
2021/01/06 00:00:28;;;;;;;56.77;31.00;;;;;;;3.12;89.56;98082.75;5072013;28;20335;-61
2021/01/06 00:02:54;;;;;;;55.80;29.97;;;;;;;3.14;89.08;98086.97;5073309;28;20031;-61
2021/01/06 00:05:23;;;;;;;50.30;28.43;;;;;;;3.18;88.67;98080.25;5073243;28;20031;-61
2021/01/06 00:07:48;;;;;;;53.47;29.97;;;;;;;3.10;88.67;98087.81;5073720;28;20024;-61
2021/01/06 00:10:21;;;;;;;53.30;29.40;;;;;;;3.15;88.99;98080.22;5073803;28;20039;-61
2021/01/06 00:12:47;;;;;;;50.20;27.07;;;;;;;3.11;89.09;98076.00;5073676;28;20399;-62
2021/01/06 00:15:20;;;;;;;49.70;28.57;;;;;;;3.13;88.87;98071.78;5072749;28;20103;-61
2021/01/06 00:17:45;;;;;;;53.13;28.10;;;;;;;3.09;88.76;98072.63;5073789;28;20184;-62
2021/01/06 00:20:12;;;;;;;48.87;26.57;;;;;;;3.18;88.77;98075.19;5072704;28;20063;-62
2021/01/06 00:22:39;;;;;;;50.80;28.73;;;;;;;3.08;88.31;98074.31;5074011;28;20036;-62
2021/01/06 00:25:06;;;;;;;48.87;27.63;;;;;;;3.04;88.40;98064.19;5071627;28;20039;-62
2021/01/06 00:27:32;;;;;;;43.80;23.87;;;;;;;3.01;88.51;98061.66;5073592;28;20107;-62
2021/01/06 00:29:57;;;;;;;46.50;25.20;;;;;;;3.03;88.45;98067.53;5072846;28;20121;-62
2021/01/06 00:32:22;;;;;;;38.63;23.00;;;;;;;2.98;87.96;98072.59;5072249;28;20186;-62
2021/01/06 00:34:48;;;;;;;44.17;23.03;;;;;;;2.96;87.85;98070.91;5071206;28;20037;-62
2021/01/06 00:37:14;;;;;;;44.20;24.87;;;;;;;2.98;88.16;98072.59;5073486;28;20047;-63
2021/01/06 00:39:40;;;;;;;39.67;21.77;;;;;;;2.91;88.15;98078.50;5073593;28;20042;-62
2021/01/06 00:42:05;;;;;;;42.93;22.67;;;;;;;2.86;88.03;98079.31;5073335;28;20453;-62
2021/01/06 00:44:31;;;;;;;39.93;22.00;;;;;;;2.63;87.97;98064.09;5072583;28;20070;-62
2021/01/06 00:46:57;;;;;;;40.07;23.20;;;;;;;2.71;88.58;98062.44;5072629;28;20056;-62
2021/01/06 00:49:22;;;;;;;46.77;24.27;;;;;;;2.78;88.65;98061.59;5073636;28;20115;-62
2021/01/06 00:51:49;;;;;;;44.60;25.60;;;;;;;2.78;88.76;98066.66;5072597;28;20049;-60
2021/01/06 00:54:15;;;;;;;47.80;26.80;;;;;;;2.80;88.50;98059.06;5073251;28;20021;-62
2021/01/06 00:56:40;;;;;;;44.87;25.67;;;;;;;2.80;88.45;98061.59;5074661;28;20028;-62
2021/01/06 00:59:06;;;;;;;41.73;25.27;;;;;;;2.82;88.19;98057.38;5077807;28;20115;-62
2021/01/06 01:01:31;;;;;;;40.67;22.77;;;;;;;2.85;87.95;98053.16;5076208;28;20016;-62
2021/01/06 01:03:57;;;;;;;44.87;24.67;;;;;;;2.86;87.71;98059.91;5073133;28;20020;-61
2021/01/06 01:06:31;;;;;;;45.83;23.73;;;;;;;2.94;87.69;98053.19;5076965;28;20393;-62
2021/01/06 01:08:57;;;;;;;47.23;26.00;;;;;;;2.79;88.15;98050.63;5074290;28;20449;-62
2021/01/06 01:11:23;;;;;;;40.83;23.67;;;;;;;2.61;88.25;98046.38;5077139;28;20162;-61
2021/01/06 01:13:50;;;;;;;48.67;26.07;;;;;;;2.64;88.40;98038.78;5076304;28;20048;-61
2021/01/06 01:16:16;;;;;;;46.63;25.60;;;;;;;2.44;88.80;98034.50;5075287;28;20028;-61
2021/01/06 01:18:42;;;;;;;52.97;25.43;;;;;;;2.37;89.84;98030.28;5077295;28;20020;-61
2021/01/06 01:21:07;;;;;;;48.27;26.07;;;;;;;2.40;89.96;98026.06;5075904;28;20034;-61
2021/01/06 01:23:32;;;;;;;49.77;25.80;;;;;;;2.41;90.11;98021.84;5077017;28;20075;-61
2021/01/06 01:25:58;;;;;;;47.73;23.93;;;;;;;2.45;89.37;98011.75;5076188;28;20052;-61
2021/01/06 01:28:26;;;;;;;46.37;23.57;;;;;;;2.42;89.31;98019.31;5076992;28;20016;-62
2021/01/06 01:30:53;;;;;;;48.97;24.63;;;;;;;2.44;88.87;98019.31;5074821;28;20025;-61
2021/01/06 01:33:19;;;;;;;45.20;23.30;;;;;;;2.36;89.08;98023.50;5075864;28;20090;-61
2021/01/06 01:35:45;;;;;;;44.00;24.60;;;;;;;2.33;88.74;98024.34;5076735;28;20045;-61
2021/01/06 01:38:17;;;;;;;40.70;23.20;;;;;;;2.35;88.62;98019.28;5074386;28;20016;-61
2021/01/06 01:40:43;;;;;;;44.10;23.67;;;;;;;2.34;88.57;98018.44;5076091;28;20025;-61
2021/01/06 01:43:19;;;;;;;41.70;22.97;;;;;;;2.25;89.45;98013.34;5074694;28;20408;-61
2021/01/06 01:45:44;;;;;;;49.47;22.47;;;;;;;2.20;89.58;98015.03;5076854;28;20051;-61
2021/01/06 01:48:28;;;;;;;48.70;25.50;;;;;;;2.18;89.81;98009.97;5075008;28;20460;-61
2021/01/06 01:50:57;;;;;;;53.13;24.70;;;;;;;2.12;89.91;98012.44;5076798;28;20434;-61
2021/01/06 01:53:31;;;;;;;50.73;25.43;;;;;;;2.13;89.96;98014.16;5073810;28;20031;-61
2021/01/06 01:55:59;;;;;;;46.07;25.03;;;;;;;2.18;89.61;98014.16;5076720;28;20368;-61
2021/01/06 01:58:29;;;;;;;47.23;22.17;;;;;;;2.11;89.99;98017.53;5075208;28;20031;-61
2021/01/06 02:00:55;;;;;;;48.13;24.97;;;;;;;1.94;90.06;98009.00;5076340;28;20016;-61
2021/01/06 02:03:41;;;;;;;45.30;25.43;;;;;;;1.96;90.49;98004.78;5076555;28;20604;-61
2021/01/06 02:06:28;;;;;;;48.57;23.20;;;;;;;2.06;90.52;98007.38;5075739;28;20036;-62
2021/01/06 02:08:58;;;;;;;47.57;25.70;;;;;;;2.07;90.34;98005.69;5075058;28;20032;-62
2021/01/06 02:11:32;;;;;;;48.63;25.43;;;;;;;2.13;90.49;98005.72;5075021;28;20016;-61
2021/01/06 02:14:18;;;;;;;52.00;24.73;;;;;;;1.97;90.56;97998.91;5074396;28;20034;-61
2021/01/06 02:16:59;;;;;;;44.80;22.77;;;;;;;1.97;90.52;97996.38;5073979;28;20070;-62
2021/01/06 02:19:32;;;;;;;55.73;25.47;;;;;;;1.79;92.09;98003.03;5076034;28;20028;-62
2021/01/06 02:21:58;;;;;;;49.47;25.90;;;;;;;1.73;92.20;98003.00;5075211;28;20020;-62
2021/01/06 02:24:23;;;;;;;62.23;25.80;;;;;;;1.67;91.86;98000.44;5075936;28;20471;-61
2021/01/06 02:26:49;;;;;;;55.47;26.43;;;;;;;1.71;92.09;97999.63;5075519;28;20028;-61
2021/01/06 02:29:15;;;;;;;61.70;25.80;;;;;;;1.69;92.17;97987.81;5075200;28;20111;-61
2021/01/06 02:31:40;;;;;;;53.13;25.67;;;;;;;1.71;91.78;97996.25;5075527;28;20132;-61
2021/01/06 02:34:06;;;;;;;49.47;24.63;;;;;;;1.79;91.76;98000.50;5074923;28;20028;-61
2021/01/06 02:36:31;;;;;;;48.17;23.10;;;;;;;1.86;90.75;97996.34;5074172;28;20062;-61
2021/01/06 02:38:58;;;;;;;46.00;25.23;;;;;;;1.72;91.32;97987.84;5074885;28;20471;-61
2021/01/06 02:41:24;;;;;;;55.60;27.50;;;;;;;1.68;91.63;97988.66;5075704;28;20468;-61
2021/01/06 02:43:50;;;;;;;53.67;26.20;;;;;;;1.51;92.02;97983.50;5073755;28;20089;-61
2021/01/06 02:46:16;;;;;;;48.17;25.83;;;;;;;1.42;92.54;97982.59;5075793;28;20032;-61
2021/01/06 02:48:42;;;;;;;62.33;27.80;;;;;;;1.46;92.04;97982.63;5074505;28;20096;-61
2021/01/06 02:51:19;;;;;;;51.97;26.77;;;;;;;1.60;92.04;97988.63;5073073;28;20016;-62
2021/01/06 02:54:02;;;;;;;57.53;27.17;;;;;;;1.45;91.85;97983.47;5075367;28;20024;-61
2021/01/06 02:56:29;;;;;;;52.80;24.27;;;;;;;1.50;91.64;97989.38;5073200;28;20032;-62
2021/01/06 02:58:56;;;;;;;56.23;26.00;;;;;;;1.49;91.92;97981.78;5073675;28;20353;-62
2021/01/06 03:01:25;;;;;;;51.47;25.47;;;;;;;1.51;91.71;97988.56;5074911;28;20115;-60
2021/01/06 03:03:53;;;;;;;52.93;25.73;;;;;;;1.47;91.25;97983.47;5074131;28;20029;-60
2021/01/06 03:06:28;;;;;;;54.03;26.50;;;;;;;1.33;91.27;97989.28;5074336;28;20024;-60
2021/01/06 03:08:54;;;;;;;47.83;24.30;;;;;;;1.34;91.08;97990.97;5074753;28;20526;-60
2021/01/06 03:11:19;;;;;;;52.57;26.13;;;;;;;1.11;91.46;98000.03;5071866;28;20104;-60
2021/01/06 03:13:45;;;;;;;46.73;24.57;;;;;;;1.18;91.40;97990.84;5072451;28;20030;-59
2021/01/06 03:16:10;;;;;;;53.87;26.13;;;;;;;1.21;91.90;97996.78;5072870;28;20360;-60
2021/01/06 03:18:36;;;;;;;50.77;24.93;;;;;;;1.26;92.25;97986.72;5072540;28;20460;-60
2021/01/06 03:21:06;;;;;;;43.27;22.13;;;;;;;1.35;92.06;97974.16;5073356;28;20460;-60
2021/01/06 03:23:37;;;;;;;48.43;22.60;;;;;;;1.38;92.60;97971.63;5074330;28;20065;-60
2021/01/06 03:26:08;;;;;;;48.13;24.50;;;;;;;1.41;92.19;97966.59;5073292;28;20043;-60
2021/01/06 03:28:35;;;;;;;46.23;23.93;;;;;;;1.42;91.98;97968.28;5072913;28;20020;-61
2021/01/06 03:31:04;;;;;;;51.70;24.30;;;;;;;1.50;92.30;97958.22;5073424;28;20158;-61
2021/01/06 03:33:47;;;;;;;49.27;23.03;;;;;;;1.51;91.71;97958.25;5073531;28;20040;-61
2021/01/06 03:36:21;;;;;;;51.40;23.90;;;;;;;1.52;92.08;97957.44;5071142;28;20183;-61
2021/01/06 03:38:58;;;;;;;44.30;21.10;;;;;;;1.54;91.25;97959.94;5070741;28;20051;-61
2021/01/06 03:41:26;;;;;;;42.77;22.93;;;;;;;1.50;91.91;97960.75;5070521;28;20039;-61
2021/01/06 03:43:55;;;;;;;49.13;23.77;;;;;;;1.43;91.10;97949.78;5071573;28;20134;-61
2021/01/06 03:46:32;;;;;;;44.90;23.57;;;;;;;1.37;91.76;97949.75;5070265;28;20074;-61
2021/01/06 03:49:27;;;;;;;43.23;22.27;;;;;;;1.42;90.82;97947.25;5070865;28;20166;-61
2021/01/06 03:52:31;;;;;;;42.90;21.73;;;;;;;1.36;90.58;97950.56;5059218;28;20036;-61
2021/01/06 03:55:09;;;;;;;41.37;21.50;;;;;;;1.24;90.69;97942.91;5037831;28;20040;-61
2021/01/06 03:57:35;;;;;;;48.03;23.17;;;;;;;1.07;90.82;97940.28;5072934;28;20035;-62
2021/01/06 04:00:03;;;;;;;45.37;23.30;;;;;;;1.09;90.86;97942.84;5073021;28;20373;-61
2021/01/06 04:02:43;;;;;;;45.93;22.27;;;;;;;1.08;90.62;97936.94;5072298;28;20373;-61
2021/01/06 04:05:13;;;;;;;55.13;26.20;;;;;;;1.00;90.78;97941.09;5069019;28;20337;-62
2021/01/06 04:07:53;;;;;;;58.13;26.63;;;;;;;1.01;91.15;97936.88;5070721;28;20056;-66
2021/01/06 04:10:34;;;;;;;52.53;24.70;;;;;;;1.05;90.93;97931.03;5080784;28;20028;-62
2021/01/06 04:12:59;;;;;;;61.90;27.70;;;;;;;0.94;90.81;97925.88;5072465;28;20464;-62
2021/01/06 04:15:25;;;;;;;52.43;25.67;;;;;;;0.94;91.11;97920.84;5071042;28;20021;-62
2021/01/06 04:17:53;;;;;;;54.30;25.60;;;;;;;1.00;91.60;97927.63;5073113;28;20378;-62
2021/01/06 04:20:34;;;;;;;57.87;27.07;;;;;;;0.98;91.34;97924.25;5072035;28;20472;-62
2021/01/06 04:23:02;;;;;;;50.13;23.33;;;;;;;0.97;91.29;97920.88;5071364;28;20126;-65
2021/01/06 04:25:34;;;;;;;57.93;25.17;;;;;;;0.92;91.31;97927.56;5070777;28;20035;-63
2021/01/06 04:28:12;;;;;;;54.33;24.80;;;;;;;0.75;91.87;97914.81;5072912;28;20017;-62
2021/01/06 04:30:45;;;;;;;54.43;25.10;;;;;;;0.77;91.83;97913.13;5070829;28;20067;-62
2021/01/06 04:33:18;;;;;;;57.87;26.63;;;;;;;0.74;92.32;97898.00;5072625;28;20449;-61
2021/01/06 04:35:44;;;;;;;54.47;23.53;;;;;;;0.63;93.00;97907.16;5063486;28;20051;-61
2021/01/06 04:38:22;;;;;;;60.33;25.70;;;;;;;0.70;92.43;97906.38;5071007;28;20025;-61
2021/01/06 04:40:53;;;;;;;57.47;25.23;;;;;;;0.61;92.67;97896.19;5067524;28;20099;-61
2021/01/06 04:43:27;;;;;;;52.30;23.27;;;;;;;0.66;92.85;97904.66;5077167;28;20028;-61
2021/01/06 04:46:25;;;;;;;52.90;24.33;;;;;;;0.71;92.92;97884.50;5077418;28;20481;-61
2021/01/06 04:49:14;;;;;;;54.37;23.90;;;;;;;0.67;93.06;97891.22;5077060;28;20037;-60
2021/01/06 04:52:17;;;;;;;49.70;24.70;;;;;;;0.72;92.58;97898.81;5069986;28;20511;-60
2021/01/06 04:54:47;;;;;;;59.50;24.17;;;;;;;0.65;92.90;97887.81;5067453;28;20028;-61
2021/01/06 04:57:41;;;;;;;60.43;25.57;;;;;;;0.65;92.89;97885.31;5077325;28;20028;-61
2021/01/06 05:00:30;;;;;;;56.50;25.17;;;;;;;0.66;92.94;97886.16;5077289;28;20497;-61
2021/01/06 05:03:20;;;;;;;56.47;24.07;;;;;;;0.75;93.21;97887.06;5077149;28;20024;-61
2021/01/06 05:05:57;;;;;;;48.63;23.80;;;;;;;0.83;93.07;97890.50;5077449;28;20024;-60
2021/01/06 05:08:40;;;;;;;60.40;26.30;;;;;;;0.83;92.98;97887.13;5077531;28;20462;-60
2021/01/06 05:11:11;;;;;;;50.57;24.03;;;;;;;0.83;92.92;97884.59;5077172;28;20024;-60
2021/01/06 05:13:59;;;;;;;45.73;22.57;;;;;;;0.85;92.95;97886.28;5076333;28;20021;-60
2021/01/06 05:16:35;;;;;;;46.13;22.07;;;;;;;0.83;92.57;97887.13;5077159;28;20028;-60
2021/01/06 05:19:03;;;;;;;46.50;21.73;;;;;;;0.83;93.05;97887.13;5076918;28;20107;-60
2021/01/06 05:21:28;;;;;;;39.47;21.60;;;;;;;0.85;92.30;97896.38;5076997;28;20075;-60
2021/01/06 05:24:00;;;;;;;43.67;21.40;;;;;;;0.89;92.68;97899.81;5076842;28;20052;-60
2021/01/06 05:26:25;;;;;;;39.60;20.67;;;;;;;0.92;92.36;97889.72;5076849;28;20043;-59
2021/01/06 05:28:51;;;;;;;39.33;20.47;;;;;;;0.88;91.96;97883.81;5075784;28;20369;-60
2021/01/06 05:31:17;;;;;;;38.10;18.97;;;;;;;0.88;91.80;97883.81;5076624;28;20021;-60
2021/01/06 05:33:52;;;;;;;38.90;19.63;;;;;;;0.91;92.64;97880.44;5075681;28;20052;-60
2021/01/06 05:36:27;;;;;;;37.57;19.07;;;;;;;0.93;92.51;97882.13;5076694;28;20052;-60
2021/01/06 05:38:53;;;;;;;39.97;20.05;;;;;;;0.86;91.96;97885.47;5077126;28;20115;-60
2021/01/06 05:41:19;;;;;;;36.67;19.33;;;;;;;0.84;92.23;97882.09;5076706;28;20105;-60
2021/01/06 05:43:50;;;;;;;31.23;17.43;;;;;;;0.87;91.86;97888.84;5075541;28;20492;-60
2021/01/06 05:46:24;;;;;;;36.53;19.07;;;;;;;0.86;91.95;97877.03;5076128;28;20043;-60
2021/01/06 05:48:52;;;;;;;34.47;18.83;;;;;;;0.90;91.75;97873.72;5076471;28;20105;-61
2021/01/06 05:51:49;;;;;;;35.70;20.43;;;;;;;0.93;91.67;97872.03;5076571;28;20016;-61
2021/01/06 05:54:20;;;;;;;35.00;20.83;;;;;;;0.93;91.82;97877.94;5076654;28;20020;-61
2021/01/06 05:56:52;;;;;;;32.33;19.83;;;;;;;0.91;91.48;97877.94;5076373;28;20571;-60
2021/01/06 05:59:29;;;;;;;32.80;18.80;;;;;;;0.89;91.35;97875.38;5076333;28;20033;-60
2021/01/06 06:02:04;;;;;;;35.03;20.37;;;;;;;0.91;91.64;97876.25;5076126;28;20051;-60
2021/01/06 06:05:03;;;;;;;34.83;18.10;;;;;;;0.90;92.04;97882.13;5074426;28;20020;-60
2021/01/06 06:07:56;;;;;;;38.27;20.13;;;;;;;0.90;92.34;97888.84;5075341;28;20123;-61
2021/01/06 06:10:39;;;;;;;38.00;21.43;;;;;;;0.86;92.36;97877.91;5076103;28;20024;-60
2021/01/06 06:13:34;;;;;;;46.57;25.00;;;;;;;0.90;92.09;97887.19;5075490;28;20020;-60
2021/01/06 06:16:32;;;;;;;46.90;25.45;;;;;;;0.93;91.86;97884.66;5062828;28;20028;-61
2021/01/06 06:19:09;;;;;;;40.53;21.20;;;;;;;0.89;91.71;97877.09;5068631;28;20033;-61
2021/01/06 06:21:58;;;;;;;36.43;18.77;;;;;;;0.89;92.07;97872.88;5075689;28;20020;-61
2021/01/06 06:24:34;;;;;;;31.20;16.50;;;;;;;0.88;92.17;97870.34;5074483;28;20027;-61
2021/01/06 06:27:24;;;;;;;31.60;17.23;;;;;;;0.93;92.54;97867.84;5076013;28;20020;-61
2021/01/06 06:30:11;;;;;;;30.47;17.00;;;;;;;0.91;91.93;97861.13;5075712;28;20027;-61
2021/01/06 06:32:38;;;;;;;25.77;14.13;;;;;;;0.85;92.30;97871.16;5075477;28;20020;-62
2021/01/06 06:35:13;;;;;;;28.30;15.57;;;;;;;0.97;92.29;97877.97;5075594;28;20120;-61
2021/01/06 06:37:51;;;;;;;29.60;16.15;;;;;;;1.03;91.25;97867.06;5075518;28;20097;-61
2021/01/06 06:40:17;;;;;;;33.05;15.45;;;;;;;0.99;91.59;97860.31;5075360;28;20029;-61
2021/01/06 06:43:07;;;;;;;26.97;15.17;;;;;;;0.99;91.52;97845.16;5074579;28;20027;-61
2021/01/06 06:45:49;;;;;;;28.37;15.27;;;;;;;0.97;91.95;97857.81;5074910;28;20071;-61
2021/01/06 06:48:38;;;;;;;28.47;15.07;;;;;;;0.98;91.84;97856.94;5074939;28;20024;-62
2021/01/06 06:51:22;;;;;;;29.23;15.37;;;;;;;1.02;90.99;97861.16;5062498;28;20016;-61
2021/01/06 06:54:11;;;;;;;28.37;14.53;;;;;;;1.09;91.08;97873.00;5075112;28;20564;-61
2021/01/06 06:56:48;;;;;;;29.50;14.37;;;;;;;1.03;91.02;97872.13;5075215;28;20028;-61
2021/01/06 06:59:30;;;;;;;28.47;15.40;;;;;;;1.04;90.81;97881.38;5075108;28;20441;-61
2021/01/06 07:02:02;;;;;;;31.90;15.63;;;;;;;1.04;91.11;97888.94;5074930;28;20028;-61
2021/01/06 07:04:43;;;;;;;32.23;16.87;;;;;;;1.01;91.19;97883.88;5074790;28;20024;-61
2021/01/06 07:07:41;;;;;;;29.63;15.57;;;;;;;1.04;91.37;97881.38;5074859;28;20056;-61
2021/01/06 07:10:29;;;;;;;31.43;17.20;;;;;;;1.09;91.00;97882.25;5074983;28;20032;-61
2021/01/06 07:13:03;;;;;;;30.17;15.67;;;;;;;1.09;91.20;97877.22;5073529;28;20408;-61
2021/01/06 07:15:34;;;;;;;29.37;17.80;;;;;;;1.07;91.57;97882.22;5074772;28;20128;-61
2021/01/06 07:18:20;;;;;;;28.47;15.40;;;;;;;1.10;91.24;97882.28;5073831;28;20488;-61
2021/01/06 07:20:46;;;;;;;29.27;15.40;;;;;;;1.05;90.76;97881.41;5074750;28;20105;-61
2021/01/06 07:23:22;;;;;;;31.50;16.97;;;;;;;1.12;91.43;97885.63;5074531;28;20024;-61
2021/01/06 07:26:02;;;;;;;34.67;17.10;;;;;;;1.12;90.91;97878.06;5073781;28;20024;-61
2021/01/06 07:28:28;;;;;;;32.80;16.57;;;;;;;1.18;91.05;97868.03;5074769;28;20034;-61
2021/01/06 07:30:54;;;;;;;33.17;17.70;;;;;;;1.21;90.93;97867.19;5074714;28;20025;-61
2021/01/06 07:33:38;;;;;;;37.23;19.30;;;;;;;1.27;91.09;97875.63;5074385;28;20365;-62
2021/01/06 07:36:15;;;;;;;42.17;20.50;;;;;;;1.29;90.70;97880.69;5074415;28;20048;-61
2021/01/06 07:38:43;;;;;;;39.10;18.57;;;;;;;1.32;90.61;97881.53;5074485;28;20044;-61
2021/01/06 07:41:09;;;;;;;37.70;19.23;;;;;;;1.34;90.63;97887.47;5074244;28;20044;-61
2021/01/06 07:43:38;;;;;;;33.30;17.50;;;;;;;1.33;90.22;97882.38;5074403;28;20021;-61
2021/01/06 07:46:17;;;;;;;35.63;18.03;;;;;;;1.42;90.31;97882.44;5074219;28;20028;-61
2021/01/06 07:48:43;;;;;;;34.63;17.57;;;;;;;1.44;89.47;97879.94;5074498;28;20488;-61
2021/01/06 07:51:41;;;;;;;36.67;18.53;;;;;;;1.52;89.14;97876.59;5074239;28;20113;-61
2021/01/06 07:54:22;;;;;;;35.30;17.60;;;;;;;1.53;89.09;97874.94;5066050;28;20402;-61
2021/01/06 07:56:57;;;;;;;42.27;18.73;;;;;;;1.61;88.98;97881.66;5074328;28;20395;-61
2021/01/06 07:59:29;;;;;;;35.07;17.53;;;;;;;1.67;89.02;97884.22;5074254;28;20103;-61
2021/01/06 08:02:09;;;;;;;36.70;18.30;;;;;;;1.72;88.73;97881.72;5074059;28;20027;-62
2021/01/06 08:04:56;;;;;;;38.27;18.10;;;;;;;1.68;88.79;97870.78;5067082;28;20093;-61
2021/01/06 08:07:24;;;;;;;43.77;19.50;;;;;;;1.57;88.91;97879.97;5073862;28;20111;-61
2021/01/06 08:09:51;;;;;;;43.20;21.87;;;;;;;1.58;89.28;97879.13;5074435;28;20025;-61
2021/01/06 08:12:28;;;;;;;40.40;18.63;;;;;;;1.67;89.37;97879.19;5075051;28;20031;-61
2021/01/06 08:15:23;;;;;;;36.40;17.97;;;;;;;1.73;87.74;97886.78;5074081;28;20036;-61
2021/01/06 08:18:01;;;;;;;29.60;15.73;;;;;;;1.76;87.85;97894.38;5074718;28;20032;-61
2021/01/06 08:20:32;;;;;;;33.37;17.00;;;;;;;1.77;87.25;97897.75;5073713;28;20072;-61
2021/01/06 08:23:03;;;;;;;33.27;16.80;;;;;;;1.72;87.75;97892.69;5073974;28;20087;-61
2021/01/06 08:25:32;;;;;;;30.80;17.13;;;;;;;1.77;87.39;97890.16;5074386;28;20345;-62
2021/01/06 08:27:58;;;;;;;33.93;17.33;;;;;;;1.66;88.00;97900.22;5073973;28;20028;-62
2021/01/06 08:30:26;;;;;;;39.37;19.87;;;;;;;1.69;87.47;97909.50;5073776;28;20503;-62
2021/01/06 08:33:13;;;;;;;36.80;19.20;;;;;;;1.67;87.60;97903.59;5073821;28;20111;-62
2021/01/06 08:35:41;;;;;;;36.90;17.77;;;;;;;1.57;87.91;97905.22;5072649;28;20139;-61
2021/01/06 08:38:31;;;;;;;42.80;20.37;;;;;;;1.60;88.46;97909.47;5074142;28;20357;-61
2021/01/06 08:41:15;;;;;;;42.73;19.43;;;;;;;1.58;88.31;97898.50;5060139;28;20032;-61
2021/01/06 08:43:40;;;;;;;30.03;16.67;;;;;;;1.39;88.78;97905.16;5073584;28;20361;-61
2021/01/06 08:46:06;;;;;;;23.07;13.07;;;;;;;1.34;88.83;97910.19;5073613;28;20043;-61
2021/01/06 08:48:35;;;;;;;22.40;11.83;;;;;;;1.33;89.04;97913.53;5073034;28;20452;-61
2021/01/06 08:51:10;;;;;;;21.70;13.03;;;;;;;1.38;89.23;97919.47;5073647;28;20036;-61
2021/01/06 08:53:39;;;;;;;23.23;13.30;;;;;;;1.34;89.09;97905.13;5073729;28;20028;-61
2021/01/06 08:56:10;;;;;;;27.93;12.53;;;;;;;1.29;89.44;97909.31;5073533;28;20095;-61
2021/01/06 08:58:45;;;;;;;23.27;12.30;;;;;;;1.48;89.32;97896.78;5072823;28;20020;-61
2021/01/06 09:01:36;;;;;;;32.17;14.55;;;;;;;1.56;89.40;97910.28;5073584;28;20519;-61
2021/01/06 09:04:16;;;;;;;31.57;14.30;;;;;;;1.51;90.16;97910.25;5073625;28;20021;-61
2021/01/06 09:06:47;;;;;;;29.90;13.87;;;;;;;1.70;89.68;97913.69;5073408;28;20043;-61
2021/01/06 09:09:40;;;;;;;29.43;13.83;;;;;;;1.86;88.76;97910.44;5073637;28;20035;-61
2021/01/06 09:12:34;;;;;;;23.17;12.30;;;;;;;1.78;88.17;97912.91;5073556;28;20028;-61
2021/01/06 09:15:03;;;;;;;19.73;9.93;;;;;;;1.82;87.98;97913.78;5073141;28;20024;-61
2021/01/06 09:17:43;;;;;;;18.03;10.57;;;;;;;1.84;87.92;97907.88;5074587;28;20036;-62
2021/01/06 09:20:14;;;;;;;16.70;9.33;;;;;;;1.86;88.36;97900.31;5075905;28;20044;-62
2021/01/06 09:22:41;;;;;;;21.90;10.77;;;;;;;1.91;88.51;97900.34;5075950;28;20103;-62
2021/01/06 09:25:07;;;;;;;29.50;11.10;;;;;;;1.88;87.16;97900.31;5076971;28;20464;-62
2021/01/06 09:27:40;;;;;;;14.97;9.53;;;;;;;1.93;87.24;97896.13;5077145;28;20047;-62
2021/01/06 09:30:33;;;;;;;17.43;9.67;;;;;;;2.07;86.55;97895.31;5077092;28;20099;-62
2021/01/06 09:33:01;;;;;;;18.53;9.93;;;;;;;2.03;86.58;97897.84;5075335;28;20029;-62
2021/01/06 09:35:30;;;;;;;16.37;9.13;;;;;;;2.10;86.25;97902.06;5076514;28;20469;-62
2021/01/06 09:37:58;;;;;;;23.50;11.30;;;;;;;2.05;86.68;97894.47;5076788;28;20020;-62
2021/01/06 09:40:25;;;;;;;21.03;10.33;;;;;;;2.24;86.13;97895.34;5076714;28;20473;-61
2021/01/06 09:43:06;;;;;;;22.10;11.83;;;;;;;2.24;86.15;97896.22;5075683;28;20099;-61
2021/01/06 09:45:33;;;;;;;18.80;9.73;;;;;;;2.23;86.03;97894.50;5076571;28;20036;-61
2021/01/06 09:48:01;;;;;;;18.77;9.33;;;;;;;2.38;85.92;97897.91;5076433;28;20032;-61
2021/01/06 09:50:47;;;;;;;25.77;12.30;;;;;;;2.47;86.37;97901.28;5076729;28;20029;-61
2021/01/06 09:53:16;;;;;;;18.97;10.60;;;;;;;2.87;84.28;97886.13;5076515;28;20040;-61
2021/01/06 09:55:44;;;;;;;14.67;8.73;;;;;;;2.89;84.08;97889.47;5076378;28;20040;-61
2021/01/06 09:58:32;;;;;;;19.23;10.10;;;;;;;2.89;83.68;97890.31;5075381;28;20161;-61
2021/01/06 10:01:13;;;;;;;18.10;10.00;;;;;;;2.75;83.82;97902.16;5076349;28;20112;-61
2021/01/06 10:03:41;;;;;;;21.57;10.53;;;;;;;2.82;82.95;97895.38;5075953;28;20028;-61
2021/01/06 10:06:29;;;;;;;23.93;12.37;;;;;;;2.82;83.46;97897.91;5076079;28;20059;-61
2021/01/06 10:09:25;;;;;;;19.00;9.37;;;;;;;2.87;82.98;97891.19;5076000;28;20107;-61
2021/01/06 10:11:57;;;;;;;20.20;10.23;;;;;;;2.82;84.01;97893.72;5074893;28;20058;-61
2021/01/06 10:14:41;;;;;;;18.27;10.07;;;;;;;2.97;84.69;97892.88;5075817;28;20085;-61
2021/01/06 10:17:30;;;;;;;16.90;9.50;;;;;;;3.01;82.98;97892.84;5062066;28;20028;-61
2021/01/06 10:20:03;;;;;;;18.57;9.57;;;;;;;2.74;83.20;97896.25;5075708;28;20063;-61
2021/01/06 10:22:40;;;;;;;16.57;9.90;;;;;;;2.86;83.99;97890.34;5075691;28;20032;-61
2021/01/06 10:25:31;;;;;;;20.57;10.57;;;;;;;2.96;83.41;97889.50;5075598;28;20028;-61
2021/01/06 10:28:28;;;;;;;21.90;10.80;;;;;;;3.22;81.68;97880.13;5075649;28;20028;-61
2021/01/06 10:31:10;;;;;;;23.23;10.77;;;;;;;3.32;82.61;97875.91;5075137;28;20027;-61
2021/01/06 10:34:01;;;;;;;20.67;11.60;;;;;;;3.52;81.37;97879.22;5075606;28;20024;-63
2021/01/06 10:36:27;;;;;;;19.80;10.77;;;;;;;3.14;81.04;97879.31;5075318;28;20366;-64
2021/01/06 10:38:53;;;;;;;19.23;10.07;;;;;;;2.69;82.24;97881.91;5075471;28;20038;-64
2021/01/06 10:41:19;;;;;;;17.47;9.77;;;;;;;2.71;81.87;97890.34;5075199;28;20086;-64
2021/01/06 10:43:49;;;;;;;17.40;9.70;;;;;;;3.28;80.97;97880.97;5075427;28;20373;-64
2021/01/06 10:46:39;;;;;;;19.57;10.33;;;;;;;3.55;79.72;97875.84;5069691;28;20033;-64
2021/01/06 10:49:14;;;;;;;17.63;9.93;;;;;;;3.56;79.73;97870.78;5075497;28;20020;-63
2021/01/06 10:51:47;;;;;;;15.70;9.68;;;;;;;3.52;79.05;97860.66;5075265;28;20115;-63
2021/01/06 10:54:15;;;;;;;18.37;10.80;;;;;;;3.32;78.91;97864.91;5075138;28;20119;-62
2021/01/06 10:56:42;;;;;;;17.83;11.77;;;;;;;3.38;79.71;97855.63;5075142;28;20032;-63
2021/01/06 10:59:14;;;;;;;23.20;12.63;;;;;;;3.27;78.96;97859.06;5075168;28;21026;-63
2021/01/06 11:02:13;;;;;;;22.10;12.37;;;;;;;3.21;79.31;97859.91;5067251;28;20086;-63
2021/01/06 11:04:41;;;;;;;26.40;13.67;;;;;;;3.09;80.01;97853.19;5074560;28;20484;-63
2021/01/06 11:07:43;;;;;;;23.37;12.17;;;;;;;2.91;80.60;97852.34;5075145;28;20033;-64
2021/01/06 11:10:10;;;;;;;23.40;12.40;;;;;;;2.96;80.37;97858.25;5074888;28;20326;-64
2021/01/06 11:12:53;;;;;;;22.43;13.53;;;;;;;3.23;79.80;97853.13;5073729;28;20430;-64
2021/01/06 11:15:34;;;;;;;26.67;13.70;;;;;;;3.36;79.75;97848.88;5074997;28;20016;-64
2021/01/06 11:18:19;;;;;;;21.83;11.40;;;;;;;2.88;80.23;97843.09;5073782;28;20532;-64
2021/01/06 11:20:50;;;;;;;25.60;11.80;;;;;;;2.49;83.10;97848.16;5074478;28;20078;-64
2021/01/06 11:23:23;;;;;;;17.47;9.40;;;;;;;2.52;82.59;97848.16;5073358;28;20089;-64
2021/01/06 11:25:55;;;;;;;19.20;9.20;;;;;;;2.52;83.19;97851.53;5074436;28;20069;-64
2021/01/06 11:28:50;;;;;;;18.77;9.80;;;;;;;2.12;84.11;97852.34;5073424;28;20120;-64
2021/01/06 11:31:18;;;;;;;19.33;9.77;;;;;;;1.93;85.45;97860.72;5074592;28;20027;-65
2021/01/06 11:33:54;;;;;;;24.37;10.90;;;;;;;1.83;85.84;97854.78;5074170;28;20400;-65
2021/01/06 11:36:19;;;;;;;;;;;;;;;1.69;86.47;97858.97;5074949;28;20037;-65
2021/01/06 11:38:53;;;;;;;30.57;11.17;;;;;;;1.72;87.18;97853.94;5074583;28;19981;-66
2021/01/06 11:41:27;;;;;;;22.20;10.60;;;;;;;1.99;86.46;97864.13;5073972;28;20029;-65
2021/01/06 11:44:22;;;;;;;23.47;11.80;;;;;;;2.30;85.27;97848.16;5073946;28;20052;-64
2021/01/06 11:47:20;;;;;;;25.97;12.30;;;;;;;2.34;84.04;97854.06;4977362;28;20270;-65
2021/01/06 11:49:59;;;;;;;25.53;14.13;;;;;;;2.53;83.62;97839.75;4993395;28;20022;-62
2021/01/06 11:52:42;;;;;;;23.97;12.87;;;;;;;2.57;83.49;97842.28;4993366;28;20375;-66
2021/01/06 11:55:13;;;;;;;21.57;11.77;;;;;;;2.83;83.59;97841.41;4993415;28;20030;-66
2021/01/06 11:57:38;;;;;;;22.60;11.37;;;;;;;2.90;83.26;97835.47;4993163;28;20064;-65
2021/01/06 12:00:22;;;;;;;17.33;9.70;;;;;;;3.57;81.92;97841.19;4993194;28;20447;-66